Time;durP1;ratioP1;P1;durP2;ratioP2;P2;SDS_P1;SDS_P2;PMS_P1;PMS_P2;Temp;Humidity;BMP_temperature;BMP_pressure;BME280_temperature;BME280_humidity;BME280_pressure;Samples;Min_cycle;Max_cycle;Signal;HPM_P1;HPM_P2
2022/09/16 00:57:57;;;;;;;22.00;20.80;;;15.20;99.90;;;;;;5822576;23;20523;-74
2022/09/16 01:00:23;;;;;;;21.30;20.00;;;15.10;99.90;;;;;;4970523;28;20487;-73
2022/09/16 01:02:51;;;;;;;20.03;18.77;;;15.00;99.90;;;;;;4970026;28;20464;-74
2022/09/16 01:05:21;;;;;;;20.57;19.47;;;15.20;99.90;;;;;;4970726;28;20459;-75
2022/09/16 01:07:50;;;;;;;20.37;19.13;;;15.00;99.90;;;;;;4970743;28;20451;-73
2022/09/16 01:10:19;;;;;;;20.70;19.50;;;15.00;99.90;;;;;;4970642;28;20491;-74
2022/09/16 01:12:50;;;;;;;21.53;19.67;;;15.00;99.90;;;;;;4970781;28;20952;-74
2022/09/16 01:15:18;;;;;;;21.50;20.00;;;15.00;99.90;;;;;;4970736;28;20451;-75
2022/09/16 01:17:59;;;;;;;21.40;20.10;;;15.00;99.90;;;;;;4970667;28;20503;-74
2022/09/16 01:21:03;;;;;;;21.40;20.00;;;14.90;99.90;;;;;;4970934;28;20451;-75
2022/09/16 01:23:55;;;;;;;21.07;19.77;;;15.00;99.90;;;;;;4970768;28;20569;-75
2022/09/16 01:26:50;;;;;;;21.50;20.07;;;15.00;99.90;;;;;;4970648;28;20482;-75
2022/09/16 01:29:38;;;;;;;20.53;19.33;;;14.90;99.90;;;;;;4970571;28;20514;-74
2022/09/16 01:32:12;;;;;;;20.40;19.30;;;14.90;99.90;;;;;;4970527;28;20443;-75
2022/09/16 01:34:50;;;;;;;20.33;19.13;;;14.90;99.90;;;;;;4970672;28;20531;-76
2022/09/16 01:37:28;;;;;;;20.53;19.27;;;14.90;99.90;;;;;;4970585;28;20817;-75
2022/09/16 01:40:02;;;;;;;20.40;19.30;;;15.00;99.90;;;;;;4970645;28;20450;-75
2022/09/16 01:42:39;;;;;;;21.73;20.23;;;15.00;99.90;;;;;;4970648;28;20462;-75
2022/09/16 01:45:15;;;;;;;20.70;19.47;;;15.00;99.90;;;;;;4970298;28;20450;-74
2022/09/16 01:47:50;;;;;;;21.30;19.77;;;15.00;99.90;;;;;;4970754;28;20953;-76
2022/09/16 01:50:22;;;;;;;21.73;20.40;;;14.90;99.90;;;;;;4970254;28;20494;-75
2022/09/16 01:52:56;;;;;;;22.37;20.87;;;14.80;99.90;;;;;;4970403;28;20452;-75
2022/09/16 01:55:32;;;;;;;22.40;20.97;;;14.70;99.90;;;;;;4970388;28;20451;-75
2022/09/16 01:58:03;;;;;;;21.93;20.63;;;14.60;99.90;;;;;;4970176;28;20487;-75
2022/09/16 02:00:31;;;;;;;23.47;21.17;;;14.60;99.90;;;;;;4970563;28;20440;-75
2022/09/16 02:03:03;;;;;;;24.10;22.43;;;14.50;99.90;;;;;;4970614;28;20803;-76
2022/09/16 02:05:34;;;;;;;24.03;22.37;;;14.50;99.90;;;;;;4970448;28;20455;-75
2022/09/16 02:08:05;;;;;;;23.77;22.17;;;14.50;99.90;;;;;;4970426;28;20448;-75
2022/09/16 02:10:38;;;;;;;24.73;22.90;;;14.40;99.90;;;;;;4970228;28;20578;-75
2022/09/16 02:13:10;;;;;;;23.70;22.20;;;14.40;99.90;;;;;;4970116;28;20463;-75
2022/09/16 02:15:41;;;;;;;22.67;21.10;;;14.40;99.90;;;;;;4973865;28;20539;-75
2022/09/16 02:18:12;;;;;;;23.23;21.47;;;14.40;99.90;;;;;;4973778;28;20455;-75
2022/09/16 02:20:43;;;;;;;22.40;20.73;;;14.40;99.90;;;;;;4973957;28;20534;-74
2022/09/16 02:23:14;;;;;;;23.83;22.33;;;14.40;99.90;;;;;;4973971;28;20861;-75
2022/09/16 02:25:44;;;;;;;25.37;23.30;;;14.40;99.90;;;;;;4973945;28;20447;-74
2022/09/16 02:29:06;;;;;;;22.93;21.20;;;14.40;99.90;;;;;;4973806;28;20819;-75
2022/09/16 02:31:37;;;;;;;23.57;22.03;;;14.40;99.90;;;;;;4960727;28;20490;-75
2022/09/16 02:34:09;;;;;;;22.83;21.37;;;14.40;99.90;;;;;;4973197;28;20621;-75
2022/09/16 02:36:40;;;;;;;24.30;22.47;;;14.40;99.90;;;;;;4973159;28;21248;-76
2022/09/16 02:39:10;;;;;;;21.13;20.03;;;14.50;99.90;;;;;;4973217;28;20458;-75
2022/09/16 02:41:39;;;;;;;22.47;20.83;;;14.50;99.90;;;;;;4973050;28;20452;-76
2022/09/16 02:44:07;;;;;;;22.33;20.83;;;14.40;99.90;;;;;;4973112;28;20691;-75
2022/09/16 02:46:39;;;;;;;22.10;20.80;;;14.50;99.90;;;;;;4973089;28;20853;-76
2022/09/16 02:49:14;;;;;;;23.87;22.33;;;14.40;99.90;;;;;;4973084;28;20510;-74
2022/09/16 02:51:48;;;;;;;23.03;21.53;;;14.40;99.90;;;;;;4973198;28;20483;-75
2022/09/16 02:54:23;;;;;;;23.67;21.77;;;14.30;99.90;;;;;;4973099;28;20462;-75
2022/09/16 02:56:49;;;;;;;23.23;21.57;;;14.40;99.90;;;;;;4972721;28;21148;-74
2022/09/16 02:59:17;;;;;;;23.27;21.57;;;14.20;99.90;;;;;;4972702;28;20822;-74
2022/09/16 03:01:46;;;;;;;22.60;20.80;;;14.30;99.90;;;;;;4972893;28;20452;-74
2022/09/16 03:04:17;;;;;;;22.77;21.27;;;14.20;99.90;;;;;;4973149;28;20930;-75
2022/09/16 03:06:44;;;;;;;23.40;21.70;;;14.20;99.90;;;;;;4973034;28;20456;-75
2022/09/16 03:09:13;;;;;;;23.50;21.80;;;14.20;99.90;;;;;;4973056;28;20453;-75
2022/09/16 03:12:03;;;;;;;21.77;20.27;;;14.20;99.90;;;;;;4972659;28;20495;-75
2022/09/16 03:14:54;;;;;;;21.93;20.00;;;14.10;99.90;;;;;;4972677;28;20460;-75
2022/09/16 03:17:36;;;;;;;22.00;20.70;;;14.10;99.90;;;;;;4972444;28;20530;-75
2022/09/16 03:20:11;;;;;;;22.40;20.57;;;14.10;99.90;;;;;;4972557;28;20459;-75
2022/09/16 03:22:48;;;;;;;20.80;19.10;;;14.10;99.90;;;;;;4972361;28;20470;-75
2022/09/16 03:25:27;;;;;;;22.70;21.27;;;14.00;99.90;;;;;;4972220;28;20506;-75
2022/09/16 03:28:01;;;;;;;21.40;20.17;;;14.10;99.90;;;;;;4972264;28;20459;-76
2022/09/16 03:30:32;;;;;;;20.67;19.30;;;14.20;99.90;;;;;;4972525;28;20447;-73
2022/09/16 03:33:04;;;;;;;20.40;19.20;;;14.40;99.90;;;;;;4972511;28;20462;-76
2022/09/16 03:35:38;;;;;;;20.53;19.23;;;14.40;99.90;;;;;;4972275;28;20452;-76
2022/09/16 03:38:07;;;;;;;21.10;19.47;;;14.50;99.90;;;;;;4972144;28;20525;-76
2022/09/16 03:40:34;;;;;;;20.73;19.57;;;14.50;99.90;;;;;;4971970;28;20916;-74
2022/09/16 03:43:10;;;;;;;20.87;19.40;;;14.60;99.90;;;;;;4971794;28;20491;-74
2022/09/16 03:45:39;;;;;;;20.30;19.10;;;14.60;99.90;;;;;;4972007;28;20949;-75
2022/09/16 03:48:06;;;;;;;19.33;18.17;;;14.70;99.90;;;;;;4971925;28;20460;-74
2022/09/16 03:50:34;;;;;;;21.13;19.57;;;14.70;99.90;;;;;;4971701;28;20929;-74
2022/09/16 03:53:01;;;;;;;21.20;19.90;;;14.70;99.90;;;;;;4971897;28;20456;-73
2022/09/16 03:55:28;;;;;;;19.70;18.70;;;14.80;99.90;;;;;;4972057;28;20826;-74
2022/09/16 03:57:55;;;;;;;17.50;16.50;;;14.80;99.90;;;;;;4971442;28;20487;-75
2022/09/16 04:00:22;;;;;;;18.07;16.73;;;14.80;99.90;;;;;;4971458;28;20467;-76
2022/09/16 04:02:49;;;;;;;16.77;15.70;;;14.60;99.90;;;;;;4971712;28;20848;-74
2022/09/16 04:05:16;;;;;;;17.73;16.77;;;14.80;99.90;;;;;;4971656;28;20452;-75
2022/09/16 04:07:44;;;;;;;16.53;15.53;;;14.90;99.90;;;;;;4971955;28;20558;-74
2022/09/16 04:10:11;;;;;;;17.40;16.60;;;14.90;99.90;;;;;;4971966;28;20836;-74
2022/09/16 04:12:37;;;;;;;18.50;17.23;;;15.00;99.90;;;;;;4971330;28;20565;-73
2022/09/16 04:15:05;;;;;;;17.57;16.57;;;15.00;99.90;;;;;;4971458;28;20471;-72
2022/09/16 04:17:32;;;;;;;19.17;17.97;;;15.00;99.90;;;;;;4971369;28;20827;-75
2022/09/16 04:19:59;;;;;;;18.53;17.23;;;15.00;99.90;;;;;;4971632;28;20451;-76
2022/09/16 04:22:28;;;;;;;17.27;16.27;;;15.00;99.90;;;;;;4971599;28;20443;-73
2022/09/16 04:24:56;;;;;;;16.80;15.93;;;15.00;99.90;;;;;;4971365;28;20801;-74
2022/09/16 04:27:23;;;;;;;17.40;16.40;;;15.00;99.90;;;;;;4969210;28;20447;-73
2022/09/16 04:29:50;;;;;;;18.03;17.10;;;14.90;99.90;;;;;;4969604;28;20452;-74
2022/09/16 04:32:17;;;;;;;16.60;15.80;;;14.90;99.90;;;;;;4970951;28;20535;-74
2022/09/16 04:34:43;;;;;;;18.10;17.00;;;14.90;99.90;;;;;;4971338;28;20455;-74
2022/09/16 04:37:10;;;;;;;17.80;17.00;;;15.00;99.90;;;;;;4970569;28;20459;-76
2022/09/16 04:39:37;;;;;;;16.30;15.50;;;15.00;99.90;;;;;;4971069;28;20462;-75
2022/09/16 04:42:05;;;;;;;18.60;17.23;;;15.00;99.90;;;;;;4970848;28;21024;-75
2022/09/16 04:44:32;;;;;;;17.50;16.50;;;15.00;99.90;;;;;;4970933;28;20455;-73
2022/09/16 04:46:59;;;;;;;17.17;16.13;;;15.00;99.90;;;;;;4971002;28;20481;-73
2022/09/16 04:49:26;;;;;;;17.17;16.13;;;15.00;99.90;;;;;;4981652;28;20434;-72
2022/09/16 04:51:52;;;;;;;17.20;16.17;;;15.10;99.90;;;;;;4980128;28;20495;-74
2022/09/16 04:54:19;;;;;;;18.90;17.80;;;15.00;99.90;;;;;;4970646;28;20481;-75
2022/09/16 04:56:46;;;;;;;20.43;19.23;;;15.00;99.90;;;;;;4985385;28;20476;-74
2022/09/16 04:59:14;;;;;;;21.17;19.67;;;15.50;99.90;;;;;;4990116;28;20489;-73
2022/09/16 05:01:42;;;;;;;20.87;19.83;;;14.90;99.90;;;;;;4986015;28;20934;-75
2022/09/16 05:04:10;;;;;;;21.83;20.63;;;14.90;99.90;;;;;;4970954;28;20550;-75
2022/09/16 05:06:39;;;;;;;22.60;21.20;;;14.80;99.90;;;;;;4970872;28;20456;-75
2022/09/16 05:09:06;;;;;;;23.00;21.23;;;14.70;99.90;;;;;;4971230;28;20451;-74
2022/09/16 05:11:35;;;;;;;21.13;20.00;;;14.70;99.90;;;;;;4970802;28;20495;-73
2022/09/16 05:14:04;;;;;;;22.93;21.47;;;14.60;99.90;;;;;;4970662;28;20558;-74
2022/09/16 05:16:32;;;;;;;24.27;22.67;;;14.60;99.90;;;;;;4969921;28;20522;-73
2022/09/16 05:19:03;;;;;;;23.90;22.17;;;14.50;99.90;;;;;;4969927;28;20543;-73
2022/09/16 05:21:31;;;;;;;22.10;20.90;;;14.60;99.90;;;;;;4970543;28;20459;-74
2022/09/16 05:24:01;;;;;;;23.77;22.40;;;14.60;99.90;;;;;;4970762;28;20451;-73
2022/09/16 05:26:31;;;;;;;24.37;23.07;;;14.50;99.90;;;;;;4970517;28;20546;-74
2022/09/16 05:29:01;;;;;;;24.63;23.20;;;14.50;99.90;;;;;;4970598;28;21008;-73
2022/09/16 05:31:30;;;;;;;26.27;24.83;;;14.50;99.90;;;;;;4970272;28;20522;-73
2022/09/16 05:34:00;;;;;;;28.77;27.13;;;14.40;99.90;;;;;;4970318;28;20546;-72
2022/09/16 05:36:29;;;;;;;28.33;26.83;;;14.40;99.90;;;;;;4970535;28;20463;-73
2022/09/16 05:38:56;;;;;;;31.37;29.70;;;14.30;99.90;;;;;;4970290;28;20460;-71
2022/09/16 05:41:23;;;;;;;34.57;32.47;;;14.30;99.90;;;;;;4969903;28;20844;-71
2022/09/16 05:43:50;;;;;;;31.50;29.70;;;14.30;99.90;;;;;;4970037;28;20455;-69
2022/09/16 05:46:20;;;;;;;36.10;33.87;;;14.30;99.90;;;;;;4969884;28;20953;-69
2022/09/16 05:48:48;;;;;;;36.37;34.00;;;14.20;99.90;;;;;;4972622;28;20451;-70
2022/09/16 05:51:18;;;;;;;36.53;34.27;;;14.10;99.90;;;;;;4973935;28;20475;-69
2022/09/16 05:53:46;;;;;;;33.67;31.87;;;14.10;99.90;;;;;;4973976;28;20483;-69
2022/09/16 05:56:14;;;;;;;35.77;33.00;;;14.20;99.90;;;;;;4973929;28;20936;-69
2022/09/16 05:58:41;;;;;;;35.97;33.93;;;14.20;99.90;;;;;;4973897;28;20487;-69
2022/09/16 06:01:10;;;;;;;36.30;34.00;;;14.30;99.90;;;;;;4973644;28;20459;-69
2022/09/16 06:03:39;;;;;;;37.23;34.97;;;14.40;99.90;;;;;;4973563;28;20443;-69
2022/09/16 06:06:10;;;;;;;37.60;35.20;;;14.30;99.90;;;;;;4973823;28;20821;-69
2022/09/16 06:08:38;;;;;;;39.40;36.70;;;14.40;99.90;;;;;;4973404;28;20563;-69
2022/09/16 06:11:06;;;;;;;39.47;36.67;;;14.40;99.90;;;;;;4973503;28;20462;-70
2022/09/16 06:13:34;;;;;;;38.77;35.97;;;14.40;99.90;;;;;;4970197;28;20475;-69
2022/09/16 06:16:01;;;;;;;37.10;34.70;;;14.40;99.90;;;;;;4973726;28;20451;-68
2022/09/16 06:18:29;;;;;;;36.00;33.90;;;14.40;99.90;;;;;;4973826;28;20455;-68
2022/09/16 06:20:57;;;;;;;36.47;33.93;;;14.30;99.90;;;;;;4973754;28;20459;-69
2022/09/16 06:23:24;;;;;;;37.33;34.93;;;14.30;99.90;;;;;;4973280;28;20453;-69
2022/09/16 06:26:01;;;;;;;37.63;35.30;;;14.50;99.90;;;;;;4973344;28;20455;-68
2022/09/16 06:28:27;;;;;;;35.73;33.40;;;14.40;99.90;;;;;;4973469;28;20451;-68
2022/09/16 06:31:02;;;;;;;37.00;34.37;;;14.40;99.90;;;;;;4973329;28;20926;-69
2022/09/16 06:33:29;;;;;;;36.80;34.10;;;14.20;99.90;;;;;;4973002;28;21019;-69
2022/09/16 06:35:56;;;;;;;37.07;34.47;;;14.20;99.90;;;;;;4973278;28;20662;-71
2022/09/16 06:38:23;;;;;;;37.33;34.57;;;14.10;99.90;;;;;;4972989;28;20467;-68
2022/09/16 06:40:50;;;;;;;35.23;33.00;;;14.10;99.90;;;;;;4973107;28;20456;-68
2022/09/16 06:43:18;;;;;;;37.23;34.90;;;14.20;99.90;;;;;;4972615;28;20933;-70
2022/09/16 06:45:45;;;;;;;36.40;33.97;;;14.20;99.90;;;;;;4973237;28;20912;-70
2022/09/16 06:48:11;;;;;;;33.30;31.40;;;14.80;99.90;;;;;;4973340;28;20804;-70
2022/09/16 06:50:38;;;;;;;34.77;32.63;;;14.30;99.90;;;;;;4972901;28;20957;-70
2022/09/16 06:53:05;;;;;;;34.70;32.80;;;14.20;99.90;;;;;;4972792;28;20568;-68
2022/09/16 06:55:31;;;;;;;35.47;33.23;;;14.10;99.90;;;;;;4972705;28;20922;-68
2022/09/16 06:57:58;;;;;;;33.20;31.00;;;14.00;99.90;;;;;;4972939;28;21008;-67
2022/09/16 07:00:26;;;;;;;35.03;33.00;;;14.00;99.90;;;;;;4972197;28;20451;-68
2022/09/16 07:02:53;;;;;;;34.30;32.20;;;13.90;99.90;;;;;;4972844;28;20506;-69
2022/09/16 07:05:19;;;;;;;34.37;32.37;;;13.90;99.90;;;;;;4972683;28;20538;-69
2022/09/16 07:07:48;;;;;;;36.23;33.60;;;13.90;99.90;;;;;;4972592;28;20451;-69
2022/09/16 07:10:14;;;;;;;35.73;33.73;;;13.80;99.90;;;;;;4972751;28;20456;-69
2022/09/16 07:12:41;;;;;;;36.67;34.20;;;13.70;99.90;;;;;;4972708;28;20838;-69
2022/09/16 07:15:08;;;;;;;38.23;35.40;;;13.90;99.90;;;;;;4972691;28;20456;-69
2022/09/16 07:17:36;;;;;;;37.17;35.03;;;13.70;99.90;;;;;;4972479;28;20476;-70
2022/09/16 07:20:03;;;;;;;38.47;35.93;;;13.60;99.90;;;;;;4972449;28;20827;-70
2022/09/16 07:22:31;;;;;;;34.73;32.63;;;13.50;99.90;;;;;;4972503;28;20515;-70
2022/09/16 07:24:57;;;;;;;36.77;34.67;;;13.70;99.90;;;;;;4972706;28;20491;-71
2022/09/16 07:27:24;;;;;;;36.77;34.70;;;13.50;99.90;;;;;;4972246;28;20967;-71
2022/09/16 07:29:52;;;;;;;34.47;32.63;;;13.50;99.90;;;;;;4972230;28;20456;-70
2022/09/16 07:32:19;;;;;;;34.87;32.90;;;13.50;99.90;;;;;;4971990;28;20495;-70
2022/09/16 07:34:47;;;;;;;34.33;32.33;;;13.60;99.90;;;;;;4972083;28;20470;-71
2022/09/16 07:37:14;;;;;;;35.07;33.10;;;13.80;99.90;;;;;;4972240;28;20463;-71
2022/09/16 07:39:40;;;;;;;35.83;33.83;;;13.60;99.90;;;;;;4972278;28;20856;-72
2022/09/16 07:42:07;;;;;;;36.20;33.37;;;13.60;99.90;;;;;;4971720;28;20946;-72
2022/09/16 07:44:34;;;;;;;36.37;34.20;;;13.50;99.90;;;;;;4971795;28;20757;-72
2022/09/16 07:47:00;;;;;;;37.27;34.97;;;13.70;99.90;;;;;;4971785;28;20459;-70
2022/09/16 07:49:27;;;;;;;35.37;33.47;;;13.80;99.90;;;;;;4972126;28;20953;-69
2022/09/16 07:51:55;;;;;;;38.17;36.03;;;13.80;99.90;;;;;;4971831;28;20451;-69
2022/09/16 07:54:22;;;;;;;37.50;35.50;;;13.80;99.90;;;;;;4971769;28;20456;-69
2022/09/16 07:56:48;;;;;;;36.60;34.57;;;13.90;99.90;;;;;;4971516;28;21056;-69
2022/09/16 07:59:17;;;;;;;38.07;35.70;;;13.80;99.90;;;;;;4971742;28;20491;-69
2022/09/16 08:01:43;;;;;;;39.60;37.60;;;14.20;99.90;;;;;;4971788;28;20980;-69
2022/09/16 08:04:11;;;;;;;38.03;35.50;;;13.90;99.90;;;;;;4971859;28;20506;-69
2022/09/16 08:06:38;;;;;;;38.00;35.63;;;13.90;99.90;;;;;;4971482;28;20447;-70
2022/09/16 08:09:07;;;;;;;37.70;35.67;;;13.90;99.90;;;;;;4971214;28;20459;-69
2022/09/16 08:11:33;;;;;;;37.57;35.03;;;14.20;99.90;;;;;;4970409;28;20455;-69
2022/09/16 08:14:01;;;;;;;37.97;35.93;;;14.10;99.90;;;;;;4971334;28;20499;-69
2022/09/16 08:16:28;;;;;;;40.87;37.93;;;14.30;99.90;;;;;;4972058;28;20459;-70
2022/09/16 08:18:57;;;;;;;40.90;38.63;;;14.40;99.90;;;;;;4971569;28;20456;-70
2022/09/16 08:21:27;;;;;;;40.57;38.37;;;14.70;99.90;;;;;;4971391;28;20462;-69
2022/09/16 08:23:55;;;;;;;39.73;37.17;;;15.00;99.90;;;;;;4971385;28;20543;-70
2022/09/16 08:26:24;;;;;;;39.80;37.40;;;15.10;99.90;;;;;;4971200;28;20460;-70
2022/09/16 08:28:51;;;;;;;38.53;36.43;;;15.20;99.90;;;;;;4971105;28;20460;-70
2022/09/16 08:31:19;;;;;;;39.90;37.60;;;15.40;99.90;;;;;;4971047;28;20456;-68
2022/09/16 08:33:47;;;;;;;38.37;36.00;;;15.20;99.90;;;;;;4971087;28;20495;-69
2022/09/16 08:36:16;;;;;;;41.70;39.60;;;15.30;99.90;;;;;;4971631;28;20792;-69
2022/09/16 08:38:43;;;;;;;42.20;40.00;;;15.40;99.90;;;;;;4971540;28;20459;-69
2022/09/16 08:41:34;;;;;;;42.17;39.80;;;15.40;99.90;;;;;;4971438;28;20463;-69
2022/09/16 08:44:12;;;;;;;42.80;40.30;;;15.30;99.90;;;;;;4971484;28;20863;-69
2022/09/16 08:46:48;;;;;;;44.53;41.90;;;15.30;99.90;;;;;;4971097;28;20459;-70
2022/09/16 08:49:21;;;;;;;45.73;43.00;;;15.50;99.90;;;;;;4971105;28;20474;-69
2022/09/16 08:51:48;;;;;;;43.57;40.80;;;15.40;99.90;;;;;;4970970;28;20514;-69
2022/09/16 08:54:25;;;;;;;42.63;40.23;;;15.10;99.90;;;;;;4970881;28;20863;-69
2022/09/16 08:56:57;;;;;;;44.97;42.57;;;15.50;99.90;;;;;;4970729;28;20471;-69
2022/09/16 08:59:27;;;;;;;45.63;43.43;;;15.20;99.90;;;;;;4970678;28;20482;-69
2022/09/16 09:02:02;;;;;;;42.47;40.07;;;15.30;99.90;;;;;;4970575;28;20823;-69
2022/09/16 09:04:30;;;;;;;43.90;41.53;;;15.40;99.90;;;;;;4970800;28;20455;-69
2022/09/16 09:07:06;;;;;;;43.63;41.23;;;15.20;99.90;;;;;;4970998;28;20459;-69
2022/09/16 09:09:47;;;;;;;42.37;39.97;;;15.40;99.90;;;;;;4970576;28;20455;-69
2022/09/16 09:12:24;;;;;;;40.77;38.37;;;15.50;99.90;;;;;;4970702;28;20462;-70
2022/09/16 09:15:03;;;;;;;42.57;40.00;;;15.50;99.90;;;;;;4970611;28;20957;-70
2022/09/16 09:17:41;;;;;;;41.60;39.13;;;15.60;99.90;;;;;;4970582;28;20474;-70
2022/09/16 09:20:18;;;;;;;39.50;37.40;;;15.80;99.90;;;;;;4970628;28;20455;-69
2022/09/16 09:23:08;;;;;;;37.93;35.57;;;16.00;99.90;;;;;;4970232;28;20620;-69
2022/09/16 09:25:42;;;;;;;37.77;35.10;;;16.20;99.90;;;;;;4970458;28;20452;-69
2022/09/16 09:28:22;;;;;;;35.53;33.43;;;16.00;99.90;;;;;;4970297;28;20458;-69
2022/09/16 09:30:57;;;;;;;33.20;31.23;;;15.90;99.90;;;;;;4970341;28;20486;-69
2022/09/16 09:33:33;;;;;;;33.77;31.80;;;15.70;99.90;;;;;;4970402;28;20529;-69
2022/09/16 09:36:17;;;;;;;29.60;28.10;;;15.70;99.90;;;;;;4970521;28;20972;-69
2022/09/16 09:38:57;;;;;;;28.10;26.60;;;15.70;99.90;;;;;;4970619;28;20450;-69
2022/09/16 09:41:30;;;;;;;26.80;25.60;;;15.50;99.90;;;;;;4970449;28;20451;-69
2022/09/16 09:44:07;;;;;;;27.40;25.90;;;15.40;99.90;;;;;;4970703;28;20538;-69
2022/09/16 09:46:38;;;;;;;26.10;24.70;;;15.40;99.90;;;;;;4970455;28;20486;-69
2022/09/16 09:49:13;;;;;;;24.90;23.63;;;15.40;99.90;;;;;;4970318;28;20925;-69
2022/09/16 09:51:48;;;;;;;23.50;22.40;;;15.50;99.90;;;;;;4970590;28;20454;-68
2022/09/16 09:54:25;;;;;;;24.23;22.63;;;15.80;99.90;;;;;;4970368;28;20486;-69
2022/09/16 09:56:55;;;;;;;23.43;22.13;;;15.90;99.90;;;;;;4969973;28;20468;-69
2022/09/16 09:59:29;;;;;;;22.50;21.60;;;16.20;99.90;;;;;;4969986;28;20494;-69
2022/09/16 10:01:57;;;;;;;24.67;23.20;;;16.30;99.90;;;;;;4970299;28;20462;-69
2022/09/16 10:04:24;;;;;;;23.67;22.67;;;16.40;99.90;;;;;;4969967;28;20455;-70
2022/09/16 10:06:54;;;;;;;25.47;24.33;;;16.30;99.90;;;;;;4969936;28;20443;-70
2022/09/16 10:09:22;;;;;;;23.97;22.97;;;16.20;99.90;;;;;;4970045;28;21001;-69
2022/09/16 10:11:51;;;;;;;25.07;23.80;;;16.20;99.90;;;;;;4970004;28;20456;-69
2022/09/16 10:14:25;;;;;;;25.53;24.23;;;16.20;99.90;;;;;;4969908;28;20527;-69
2022/09/16 10:16:53;;;;;;;25.23;23.80;;;16.10;99.90;;;;;;4969903;28;20466;-69
2022/09/16 10:19:22;;;;;;;24.33;23.07;;;16.30;99.90;;;;;;4969961;28;20755;-70
2022/09/16 10:21:52;;;;;;;23.10;22.10;;;16.20;99.90;;;;;;4969968;28;20466;-69
2022/09/16 10:24:34;;;;;;;22.77;21.77;;;16.30;99.90;;;;;;4969987;28;20452;-69
2022/09/16 10:27:16;;;;;;;20.80;19.63;;;16.30;99.90;;;;;;4969804;28;20823;-70
2022/09/16 10:29:44;;;;;;;20.40;19.40;;;16.30;99.90;;;;;;4970295;28;20474;-69
2022/09/16 10:32:17;;;;;;;20.50;19.60;;;15.70;99.90;;;;;;4970081;28;20452;-70
2022/09/16 10:34:45;;;;;;;20.30;19.30;;;16.40;99.90;;;;;;4970943;28;20491;-69
2022/09/16 10:37:17;;;;;;;18.13;17.43;;;16.50;99.90;;;;;;4973536;28;20455;-70
2022/09/16 10:39:51;;;;;;;19.30;18.40;;;16.70;99.90;;;;;;4973420;28;20459;-69
2022/09/16 10:42:21;;;;;;;18.40;17.60;;;17.10;99.90;;;;;;4973218;28;20459;-69
2022/09/16 10:44:50;;;;;;;16.40;15.80;;;17.00;99.90;;;;;;4973139;28;20457;-70
2022/09/16 10:47:20;;;;;;;18.30;16.80;;;17.20;99.90;;;;;;4972869;28;20459;-70
2022/09/16 10:49:50;;;;;;;16.07;15.23;;;17.40;99.90;;;;;;4973156;28;20459;-70
2022/09/16 10:52:18;;;;;;;17.00;16.10;;;17.40;99.90;;;;;;4972959;28;20458;-70
2022/09/16 10:54:45;;;;;;;15.93;15.20;;;17.40;99.90;;;;;;4973164;28;20487;-71
2022/09/16 10:57:22;;;;;;;15.60;14.70;;;17.30;99.90;;;;;;4973101;28;20475;-70
2022/09/16 10:59:58;;;;;;;15.13;14.40;;;17.70;99.90;;;;;;4972894;28;20444;-71
2022/09/16 11:02:43;;;;;;;15.40;14.70;;;17.60;99.90;;;;;;4973094;28;20447;-71
2022/09/16 11:05:12;;;;;;;16.63;15.83;;;17.50;99.90;;;;;;4972872;28;20451;-72
2022/09/16 11:07:48;;;;;;;15.83;15.07;;;17.60;99.90;;;;;;4972771;28;20510;-72
2022/09/16 11:10:23;;;;;;;16.70;15.90;;;17.50;99.90;;;;;;4973108;28;20933;-71
2022/09/16 11:13:09;;;;;;;16.77;15.60;;;17.40;99.90;;;;;;4972529;28;20958;-71
2022/09/16 11:15:52;;;;;;;15.70;14.90;;;17.20;99.90;;;;;;4972666;28;20460;-71
2022/09/16 11:18:35;;;;;;;15.33;14.63;;;17.10;99.90;;;;;;4972744;28;20451;-71
2022/09/16 11:21:14;;;;;;;16.80;15.83;;;17.20;99.90;;;;;;4972497;28;20817;-72
2022/09/16 11:23:55;;;;;;;16.93;15.67;;;17.30;99.90;;;;;;4972742;28;20459;-71
2022/09/16 11:26:30;;;;;;;14.90;14.20;;;17.40;99.90;;;;;;4972301;28;20455;-71
2022/09/16 11:29:21;;;;;;;14.90;13.63;;;17.60;99.90;;;;;;4972787;28;20467;-71
2022/09/16 11:32:00;;;;;;;13.67;13.07;;;17.50;99.90;;;;;;4972451;28;20458;-71
2022/09/16 11:34:41;;;;;;;15.30;14.33;;;17.50;99.90;;;;;;4972682;28;20573;-72
2022/09/16 11:37:17;;;;;;;15.07;14.37;;;17.50;99.90;;;;;;4972281;28;20466;-72
2022/09/16 11:40:01;;;;;;;14.40;13.60;;;17.30;99.90;;;;;;4972386;28;20460;-71
2022/09/16 11:42:33;;;;;;;14.87;14.17;;;17.20;99.90;;;;;;4972530;28;20456;-71
2022/09/16 11:45:10;;;;;;;15.50;14.70;;;17.30;99.90;;;;;;4971891;28;20447;-71
2022/09/16 11:47:57;;;;;;;15.67;14.87;;;17.00;99.90;;;;;;4971882;28;20466;-71
2022/09/16 11:50:36;;;;;;;15.10;14.30;;;17.20;99.90;;;;;;4972181;28;20934;-73
2022/09/16 11:53:17;;;;;;;14.40;13.60;;;17.60;99.90;;;;;;4971857;28;20486;-72
2022/09/16 11:55:52;;;;;;;13.00;12.30;;;17.80;99.90;;;;;;4972110;28;20941;-72
2022/09/16 11:58:26;;;;;;;13.37;12.67;;;17.90;99.90;;;;;;4971719;28;20474;-71
2022/09/16 12:00:58;;;;;;;13.07;12.47;;;17.70;99.90;;;;;;4971915;28;20447;-71
2022/09/16 12:03:31;;;;;;;12.57;11.97;;;18.00;99.90;;;;;;4971826;28;20447;-71
2022/09/16 12:06:07;;;;;;;14.33;13.50;;;18.40;99.90;;;;;;4972115;28;20893;-73
2022/09/16 12:08:49;;;;;;;13.43;12.63;;;18.70;99.90;;;;;;4971597;28;20455;-72
2022/09/16 12:11:22;;;;;;;13.33;12.73;;;19.20;99.90;;;;;;4971315;28;20494;-71
2022/09/16 12:13:52;;;;;;;13.13;12.40;;;20.60;99.90;;;;;;4971280;28;20483;-72
2022/09/16 12:16:25;;;;;;;13.60;12.90;;;22.10;99.60;;;;;;4971212;28;20759;-71
2022/09/16 12:18:58;;;;;;;13.40;12.83;;;23.10;94.60;;;;;;4971225;28;20514;-72
2022/09/16 12:21:28;;;;;;;14.17;13.47;;;23.10;94.90;;;;;;4971498;28;20463;-72
2022/09/16 12:23:59;;;;;;;13.87;13.33;;;23.30;95.70;;;;;;4971552;28;20938;-71
2022/09/16 12:26:30;;;;;;;13.60;13.00;;;23.80;93.80;;;;;;4971409;28;20641;-72
2022/09/16 12:29:05;;;;;;;13.73;13.17;;;22.90;93.40;;;;;;4971532;28;20464;-75
2022/09/16 12:31:36;;;;;;;13.83;13.23;;;22.20;95.00;;;;;;4971072;28;20451;-71
2022/09/16 12:34:09;;;;;;;12.60;12.00;;;21.90;94.90;;;;;;4970870;28;21068;-72
2022/09/16 12:36:41;;;;;;;12.30;11.57;;;21.80;96.80;;;;;;4971275;28;20448;-72
2022/09/16 12:39:11;;;;;;;14.03;13.17;;;21.80;95.10;;;;;;4971058;28;20451;-72
2022/09/16 12:42:34;;;;;;;13.33;12.63;;;21.60;96.40;;;;;;4970755;28;20539;-72
2022/09/16 12:45:25;;;;;;;12.43;12.00;;;20.90;96.80;;;;;;4896939;29;20454;-72
2022/09/16 12:48:05;;;;;;;13.47;12.47;;;20.20;97.60;;;;;;4966402;28;20444;-74
2022/09/16 12:50:54;;;;;;;14.47;13.60;;;19.60;98.70;;;;;;4970844;28;20454;-71
2022/09/16 12:53:45;;;;;;;12.07;11.53;;;19.40;99.10;;;;;;4970572;28;20452;-74
2022/09/16 12:56:19;;;;;;;13.37;12.67;;;19.90;99.90;;;;;;4970780;28;20486;-74
2022/09/16 12:59:25;;;;;;;12.30;11.60;;;19.80;98.50;;;;;;4970027;28;20822;-73
2022/09/16 13:01:55;;;;;;;12.50;11.90;;;19.80;97.80;;;;;;4969140;28;20463;-74
2022/09/16 13:04:26;;;;;;;12.90;12.20;;;19.30;96.40;;;;;;4970467;28;20447;-73
2022/09/16 13:06:57;;;;;;;12.30;11.70;;;19.20;98.00;;;;;;4970418;28;20452;-71
2022/09/16 13:09:26;;;;;;;12.27;11.70;;;19.00;98.10;;;;;;4970343;28;20447;-73
2022/09/16 13:11:55;;;;;;;12.73;12.00;;;18.90;97.80;;;;;;4970214;28;20454;-72
2022/09/16 13:14:24;;;;;;;11.90;11.20;;;19.10;99.40;;;;;;4970249;28;20519;-71
2022/09/16 13:16:56;;;;;;;12.70;12.20;;;19.20;97.90;;;;;;4970336;28;20546;-72
2022/09/16 13:19:35;;;;;;;12.43;11.83;;;19.20;98.80;;;;;;4970300;28;21020;-71
2022/09/16 13:22:16;;;;;;;12.23;11.80;;;19.00;99.40;;;;;;4970242;28;20909;-74
2022/09/16 13:24:47;;;;;;;12.37;11.77;;;19.30;98.50;;;;;;4970516;28;20909;-74
2022/09/16 13:27:26;;;;;;;13.50;12.77;;;19.50;98.80;;;;;;4970931;28;20459;-73
2022/09/16 13:30:12;;;;;;;12.80;12.30;;;19.70;97.90;;;;;;4970619;28;20544;-73
2022/09/16 13:32:42;;;;;;;11.20;10.47;;;19.70;97.70;;;;;;4970318;28;20455;-73
2022/09/16 13:35:24;;;;;;;12.90;12.40;;;20.30;97.20;;;;;;4970339;28;20589;-74
2022/09/16 13:37:54;;;;;;;12.07;11.57;;;20.50;96.70;;;;;;4970402;28;20455;-73
2022/09/16 13:40:24;;;;;;;12.90;12.33;;;20.60;95.90;;;;;;4970289;28;20542;-73
2022/09/16 13:42:51;;;;;;;13.97;13.27;;;21.30;95.60;;;;;;4969900;28;20808;-73
2022/09/16 13:45:32;;;;;;;13.20;12.40;;;21.60;94.50;;;;;;4969722;28;20482;-73
2022/09/16 13:48:01;;;;;;;13.40;12.80;;;21.10;93.40;;;;;;4970331;28;20550;-73
2022/09/16 13:50:29;;;;;;;12.37;11.70;;;20.70;94.40;;;;;;4970308;28;20468;-73